Time;durP1;ratioP1;P1;durP2;ratioP2;P2;SDS_P1;SDS_P2;PMS_P1;PMS_P2;Temp;Humidity;BMP_temperature;BMP_pressure;BME280_temperature;BME280_humidity;BME280_pressure;Samples;Min_cycle;Max_cycle;Signal;HPM_P1;HPM_P2
2022/07/09 00:01:06;;;;;;;8.32;3.83;;;18.00;99.90;;;;;;5094540;28;20492;-54
2022/07/09 00:03:32;;;;;;;11.05;4.25;;;18.00;99.90;;;;;;5094484;28;20114;-54
2022/07/09 00:05:58;;;;;;;13.45;3.97;;;18.00;99.90;;;;;;5094950;28;20028;-54
2022/07/09 00:08:24;;;;;;;9.45;4.18;;;18.00;99.90;;;;;;5094463;28;20377;-54
2022/07/09 00:10:50;;;;;;;12.75;4.38;;;18.00;99.90;;;;;;5094561;28;20054;-54
2022/07/09 00:13:16;;;;;;;6.78;4.07;;;18.00;99.90;;;;;;5094462;28;20032;-54
2022/07/09 00:15:42;;;;;;;5.90;3.83;;;18.00;99.90;;;;;;5094512;28;20032;-54
2022/07/09 00:18:08;;;;;;;7.72;3.92;;;17.90;99.90;;;;;;5094156;28;20040;-54
2022/07/09 00:20:34;;;;;;;10.05;4.03;;;17.90;99.90;;;;;;5094632;28;20020;-54
2022/07/09 00:23:00;;;;;;;8.10;4.10;;;17.90;99.90;;;;;;5094302;28;20029;-54
2022/07/09 00:25:26;;;;;;;7.90;4.05;;;18.00;99.90;;;;;;5094376;28;20431;-54
2022/07/09 00:27:52;;;;;;;7.47;4.35;;;17.90;99.90;;;;;;5094481;28;20032;-54
2022/07/09 00:30:18;;;;;;;12.60;5.03;;;17.90;99.90;;;;;;5094362;28;20024;-54
2022/07/09 00:32:44;;;;;;;7.93;4.55;;;17.90;99.90;;;;;;5094334;28;20024;-54
2022/07/09 00:35:10;;;;;;;8.20;4.50;;;17.80;99.90;;;;;;5094375;28;20028;-54
2022/07/09 00:37:36;;;;;;;13.00;4.47;;;17.80;99.90;;;;;;5094141;28;20111;-54
2022/07/09 00:40:02;;;;;;;11.02;5.07;;;17.80;99.90;;;;;;5094233;28;20374;-54
2022/07/09 00:42:28;;;;;;;13.77;4.45;;;17.80;99.90;;;;;;5094383;28;20025;-54
2022/07/09 00:44:54;;;;;;;7.32;4.60;;;17.80;99.90;;;;;;5098186;28;20386;-54
2022/07/09 00:47:20;;;;;;;10.77;5.07;;;17.80;99.90;;;;;;5098012;28;20024;-54
2022/07/09 00:49:46;;;;;;;8.57;5.22;;;17.80;99.90;;;;;;5098118;28;20085;-54
2022/07/09 00:52:14;;;;;;;9.38;5.07;;;17.90;99.90;;;;;;5098001;28;20111;-54
2022/07/09 00:54:41;;;;;;;9.55;5.38;;;17.90;99.90;;;;;;5097664;28;20544;-54
2022/07/09 00:57:09;;;;;;;12.90;5.60;;;17.70;99.90;;;;;;5097985;28;20028;-54
2022/07/09 00:59:36;;;;;;;26.60;7.20;;;17.70;99.90;;;;;;5097801;28;20489;-54
2022/07/09 01:02:03;;;;;;;12.82;6.25;;;17.70;99.90;;;;;;5097829;28;20023;-54
2022/07/09 01:04:29;;;;;;;12.68;6.15;;;17.70;99.90;;;;;;5097943;28;20024;-54
2022/07/09 01:06:57;;;;;;;13.82;6.75;;;17.70;99.90;;;;;;5097688;28;20069;-54
2022/07/09 01:09:24;;;;;;;19.75;6.90;;;17.70;99.90;;;;;;5097581;28;20028;-54
2022/07/09 01:11:51;;;;;;;15.23;7.15;;;17.70;99.90;;;;;;5097680;28;20431;-54
2022/07/09 01:14:17;;;;;;;12.73;6.75;;;17.60;99.90;;;;;;5097772;28;20050;-54
2022/07/09 01:16:43;;;;;;;14.98;6.70;;;17.60;99.90;;;;;;5097422;28;20074;-54
2022/07/09 01:19:10;;;;;;;15.48;7.18;;;17.70;99.90;;;;;;5097271;28;20072;-54
2022/07/09 01:21:36;;;;;;;17.95;7.93;;;17.70;99.90;;;;;;5097417;28;20024;-54
2022/07/09 01:24:02;;;;;;;15.00;6.90;;;17.70;99.90;;;;;;5097594;28;20020;-54
2022/07/09 01:26:28;;;;;;;15.40;7.25;;;17.60;99.90;;;;;;5097496;28;20385;-54
2022/07/09 01:28:54;;;;;;;11.18;6.00;;;17.60;99.90;;;;;;5097239;28;20058;-54
2022/07/09 01:31:20;;;;;;;17.75;6.03;;;17.60;99.90;;;;;;5097355;28;20021;-54
2022/07/09 01:33:46;;;;;;;12.50;6.03;;;17.60;99.90;;;;;;5097140;28;20020;-54
2022/07/09 01:36:12;;;;;;;10.73;5.28;;;17.50;99.90;;;;;;5097199;28;20036;-54
2022/07/09 01:38:38;;;;;;;9.27;4.43;;;17.50;99.90;;;;;;5097039;28;20431;-54
2022/07/09 01:41:04;;;;;;;12.40;4.40;;;17.50;99.90;;;;;;5097072;28;20103;-54
2022/07/09 01:43:34;;;;;;;22.65;5.57;;;17.60;99.90;;;;;;5078939;28;20024;-54
2022/07/09 01:46:00;;;;;;;10.23;4.25;;;17.60;99.90;;;;;;5097155;28;20359;-54
2022/07/09 01:48:28;;;;;;;13.48;4.13;;;17.60;99.90;;;;;;5096964;28;20028;-54
2022/07/09 01:50:55;;;;;;;11.10;4.18;;;17.50;99.90;;;;;;5096880;28;20085;-54
2022/07/09 01:53:20;;;;;;;6.55;3.83;;;17.60;99.90;;;;;;5096631;28;20066;-54
2022/07/09 01:55:46;;;;;;;16.85;4.38;;;17.70;99.90;;;;;;5096544;28;20036;-54
2022/07/09 01:58:13;;;;;;;8.13;4.43;;;17.60;99.90;;;;;;5078464;28;20040;-54
2022/07/09 02:00:40;;;;;;;8.13;4.35;;;17.40;99.90;;;;;;5096669;28;20077;-54
2022/07/09 02:03:06;;;;;;;9.30;4.85;;;17.30;99.90;;;;;;5096584;28;20028;-54
2022/07/09 02:05:32;;;;;;;8.73;4.45;;;17.20;99.90;;;;;;5096650;28;20046;-54
2022/07/09 02:07:58;;;;;;;12.88;4.45;;;17.10;99.90;;;;;;5096591;28;20404;-54
2022/07/09 02:10:23;;;;;;;7.88;4.50;;;17.00;99.90;;;;;;5096553;28;20039;-54
2022/07/09 02:12:49;;;;;;;8.10;4.50;;;16.90;99.90;;;;;;5096480;28;20036;-54
2022/07/09 02:15:15;;;;;;;10.18;4.78;;;16.90;99.90;;;;;;5096633;28;20413;-54
2022/07/09 02:17:41;;;;;;;8.70;4.93;;;16.80;99.90;;;;;;5096261;28;20036;-54
2022/07/09 02:20:08;;;;;;;9.30;4.97;;;16.70;99.90;;;;;;5096244;28;20028;-54
2022/07/09 02:22:34;;;;;;;10.88;5.13;;;16.70;99.90;;;;;;5096461;28;20020;-54
2022/07/09 02:25:01;;;;;;;14.57;5.30;;;16.70;99.90;;;;;;5096250;28;20466;-54
2022/07/09 02:27:27;;;;;;;9.30;5.03;;;16.70;99.90;;;;;;5096284;28;20484;-54
2022/07/09 02:29:52;;;;;;;6.43;4.88;;;16.60;99.90;;;;;;5096137;28;20058;-54
2022/07/09 02:32:18;;;;;;;8.63;5.60;;;16.60;99.90;;;;;;5096047;28;20024;-54
2022/07/09 02:34:44;;;;;;;7.45;4.72;;;16.60;99.90;;;;;;5096149;28;20059;-54
2022/07/09 02:37:10;;;;;;;8.88;5.00;;;16.50;99.90;;;;;;5095880;28;20435;-54
2022/07/09 02:39:36;;;;;;;7.22;5.25;;;16.50;99.90;;;;;;5096194;28;20032;-54
2022/07/09 02:42:02;;;;;;;5.93;4.70;;;16.60;99.90;;;;;;5095904;28;20077;-54
2022/07/09 02:44:29;;;;;;;9.20;5.70;;;16.60;99.90;;;;;;5095952;28;20016;-54
2022/07/09 02:46:55;;;;;;;7.20;5.05;;;16.50;99.90;;;;;;5096022;28;20476;-54
2022/07/09 02:49:23;;;;;;;6.95;5.18;;;16.60;99.90;;;;;;5095676;28;20032;-54
2022/07/09 02:51:49;;;;;;;10.68;5.25;;;16.60;99.90;;;;;;5095836;28;20024;-54
2022/07/09 02:54:15;;;;;;;8.52;5.40;;;16.60;99.90;;;;;;5095670;28;20428;-54
2022/07/09 02:56:41;;;;;;;10.13;5.47;;;16.50;99.90;;;;;;5095692;28;20082;-54
2022/07/09 02:59:07;;;;;;;8.30;6.07;;;16.40;99.90;;;;;;5095578;28;20082;-54
2022/07/09 03:01:33;;;;;;;10.00;5.57;;;16.40;99.90;;;;;;5095187;28;20028;-54
2022/07/09 03:03:59;;;;;;;9.80;5.22;;;16.50;99.90;;;;;;5095597;28;20089;-54
2022/07/09 03:06:25;;;;;;;11.88;5.90;;;16.50;99.90;;;;;;5094851;28;20465;-54
2022/07/09 03:08:51;;;;;;;8.90;5.30;;;16.40;99.90;;;;;;5095423;28;20024;-54
2022/07/09 03:11:17;;;;;;;10.68;5.53;;;16.50;99.90;;;;;;5095555;28;20453;-54
2022/07/09 03:13:43;;;;;;;10.05;4.95;;;16.50;99.90;;;;;;5095236;28;20059;-54
2022/07/09 03:16:09;;;;;;;9.45;5.68;;;16.50;99.90;;;;;;5095206;28;20073;-54
2022/07/09 03:18:37;;;;;;;12.60;5.05;;;16.50;99.90;;;;;;5095132;28;20074;-54
2022/07/09 03:21:03;;;;;;;9.85;5.57;;;16.50;99.90;;;;;;5095263;28;20499;-54
2022/07/09 03:23:29;;;;;;;10.23;5.82;;;16.50;99.90;;;;;;5094963;28;20024;-54
2022/07/09 03:25:55;;;;;;;8.50;5.00;;;16.40;99.90;;;;;;5095097;28;20024;-54
2022/07/09 03:28:21;;;;;;;8.27;5.22;;;16.50;99.90;;;;;;5094998;28;20198;-54
2022/07/09 03:30:47;;;;;;;10.48;5.53;;;16.50;99.90;;;;;;5095004;28;20111;-54
2022/07/09 03:33:13;;;;;;;9.93;5.03;;;16.40;99.90;;;;;;5095039;28;20030;-54
2022/07/09 03:35:39;;;;;;;9.65;5.18;;;16.40;99.90;;;;;;5095089;28;20028;-54
2022/07/09 03:38:05;;;;;;;8.07;4.85;;;16.40;99.90;;;;;;5094821;28;20448;-54
2022/07/09 03:40:31;;;;;;;8.00;4.93;;;16.40;99.90;;;;;;5094894;28;20051;-54
2022/07/09 03:42:57;;;;;;;8.57;5.15;;;16.40;99.90;;;;;;5094853;28;20486;-54
2022/07/09 03:45:23;;;;;;;8.43;5.25;;;16.40;99.90;;;;;;5094809;28;20110;-54
2022/07/09 03:47:50;;;;;;;5.10;4.32;;;16.30;99.90;;;;;;5094738;28;20135;-54
2022/07/09 03:50:16;;;;;;;10.25;5.32;;;16.50;99.90;;;;;;5094849;28;20445;-54
2022/07/09 03:52:42;;;;;;;8.48;4.68;;;16.60;99.90;;;;;;5094623;28;20036;-54
2022/07/09 03:55:08;;;;;;;9.20;5.03;;;16.50;99.90;;;;;;5094663;28;20030;-54
2022/07/09 03:57:34;;;;;;;6.32;4.85;;;16.40;99.90;;;;;;5094610;28;20028;-54
2022/07/09 04:00:00;;;;;;;7.20;4.80;;;16.40;99.90;;;;;;5094543;28;20039;-54
2022/07/09 04:02:26;;;;;;;10.32;5.15;;;16.40;99.90;;;;;;5094640;28;20016;-54
2022/07/09 04:04:56;;;;;;;8.15;4.60;;;16.30;99.90;;;;;;5094562;28;20031;-54
2022/07/09 04:07:22;;;;;;;8.80;4.53;;;16.30;99.90;;;;;;5094554;28;20067;-54
2022/07/09 04:09:48;;;;;;;9.25;4.60;;;16.40;99.90;;;;;;5094632;28;20028;-54
2022/07/09 04:12:14;;;;;;;6.82;3.92;;;16.30;99.90;;;;;;5094436;28;20405;-54
2022/07/09 04:14:40;;;;;;;9.73;4.30;;;16.30;99.90;;;;;;5094454;28;20381;-54
2022/07/09 04:17:06;;;;;;;7.60;5.03;;;16.40;99.90;;;;;;5095171;28;20028;-54
2022/07/09 04:19:32;;;;;;;7.38;4.40;;;16.30;99.90;;;;;;5098866;28;20078;-54
2022/07/09 04:21:58;;;;;;;15.23;6.05;;;16.40;99.90;;;;;;5098650;28;20028;-54
2022/07/09 04:24:24;;;;;;;11.40;4.32;;;16.40;99.90;;;;;;5098578;28;20420;-54
2022/07/09 04:26:50;;;;;;;7.43;4.82;;;16.30;99.90;;;;;;5098386;28;20085;-54
2022/07/09 04:29:15;;;;;;;9.40;4.45;;;16.30;99.90;;;;;;5098526;28;20028;-54
2022/07/09 04:31:41;;;;;;;9.45;4.75;;;16.30;99.90;;;;;;5098391;28;20032;-54
2022/07/09 04:34:07;;;;;;;7.55;3.85;;;16.40;99.90;;;;;;5098335;28;20063;-54
2022/07/09 04:36:33;;;;;;;11.77;4.20;;;16.50;99.90;;;;;;5098406;28;20028;-54
2022/07/09 04:38:59;;;;;;;7.70;4.43;;;16.40;99.90;;;;;;5098391;28;20383;-54
2022/07/09 04:41:25;;;;;;;9.35;4.50;;;16.40;99.90;;;;;;5098241;28;20085;-54
2022/07/09 04:43:51;;;;;;;8.13;3.80;;;16.40;99.90;;;;;;5098216;28;20020;-54
2022/07/09 04:46:17;;;;;;;8.77;4.03;;;16.40;99.90;;;;;;5098268;28;20368;-54
2022/07/09 04:48:43;;;;;;;10.95;4.10;;;16.30;99.90;;;;;;5098187;28;20039;-54
2022/07/09 04:51:09;;;;;;;5.15;3.78;;;16.40;99.90;;;;;;5098118;28;20024;-54
2022/07/09 04:53:35;;;;;;;7.15;3.97;;;16.30;99.90;;;;;;5098089;28;20028;-54
2022/07/09 04:56:01;;;;;;;6.68;3.80;;;16.40;99.90;;;;;;5097926;28;20024;-54
2022/07/09 04:58:29;;;;;;;10.30;4.18;;;16.40;99.90;;;;;;5097933;28;20073;-54
2022/07/09 05:00:55;;;;;;;5.75;3.63;;;16.40;99.90;;;;;;5097843;28;20454;-54
2022/07/09 05:03:21;;;;;;;9.23;3.85;;;16.40;99.90;;;;;;5097827;28;20020;-54
2022/07/09 05:05:47;;;;;;;7.72;3.92;;;16.40;99.90;;;;;;5097908;28;20107;-54
2022/07/09 05:08:13;;;;;;;8.48;4.00;;;16.40;99.90;;;;;;5097737;28;20536;-54
2022/07/09 05:10:39;;;;;;;7.97;4.15;;;16.40;99.90;;;;;;5097673;28;20063;-54
2022/07/09 05:13:05;;;;;;;7.63;4.13;;;16.40;99.90;;;;;;5097717;28;20088;-54
2022/07/09 05:15:32;;;;;;;5.80;3.70;;;16.50;99.90;;;;;;5079488;28;20051;-54
2022/07/09 05:17:58;;;;;;;8.00;3.75;;;16.60;99.90;;;;;;5097337;28;20573;-54
2022/07/09 05:20:24;;;;;;;8.60;3.78;;;16.60;99.90;;;;;;5097253;28;20042;-54
2022/07/09 05:22:50;;;;;;;7.72;4.18;;;16.70;99.90;;;;;;5097675;28;20020;-54
2022/07/09 05:25:16;;;;;;;9.73;5.63;;;16.70;99.90;;;;;;5097345;28;20039;-54
2022/07/09 05:27:44;;;;;;;7.05;3.83;;;16.80;99.90;;;;;;5097336;28;20063;-54
2022/07/09 05:30:12;;;;;;;9.65;4.20;;;16.90;99.90;;;;;;5096304;28;20028;-54
2022/07/09 05:32:38;;;;;;;7.82;3.55;;;17.10;99.90;;;;;;5097294;28;20024;-54
2022/07/09 05:35:05;;;;;;;6.70;3.83;;;17.20;99.90;;;;;;5097225;28;20537;-54
2022/07/09 05:37:31;;;;;;;12.70;4.10;;;17.40;99.90;;;;;;5097130;28;20028;-54
2022/07/09 05:39:57;;;;;;;7.72;3.83;;;17.50;99.90;;;;;;5097089;28;20043;-54
2022/07/09 05:42:24;;;;;;;7.65;3.95;;;17.60;99.90;;;;;;5097110;28;20386;-54
2022/07/09 05:44:50;;;;;;;9.20;3.15;;;17.70;99.90;;;;;;5097313;28;20450;-54
2022/07/09 05:47:16;;;;;;;7.35;3.63;;;17.80;99.90;;;;;;5097090;28;20020;-54
2022/07/09 05:49:42;;;;;;;8.07;3.63;;;17.90;99.90;;;;;;5097049;28;20027;-54
2022/07/09 05:52:08;;;;;;;12.07;3.40;;;18.00;99.90;;;;;;5096754;28;20043;-54
2022/07/09 05:54:34;;;;;;;6.68;3.47;;;17.90;99.90;;;;;;5096874;28;20389;-54
2022/07/09 05:57:00;;;;;;;6.30;3.42;;;18.00;99.90;;;;;;5096869;28;20039;-54
2022/07/09 05:59:25;;;;;;;10.30;3.13;;;18.10;99.90;;;;;;5096685;28;20051;-54
2022/07/09 06:01:51;;;;;;;10.38;3.75;;;18.10;99.90;;;;;;5096723;28;20020;-54
2022/07/09 06:04:17;;;;;;;7.95;3.30;;;18.20;99.90;;;;;;5096826;28;20387;-54
2022/07/09 06:06:43;;;;;;;10.43;3.28;;;18.30;99.90;;;;;;5096492;28;20016;-54
2022/07/09 06:09:09;;;;;;;7.97;2.90;;;18.30;99.90;;;;;;5096582;28;20106;-54
2022/07/09 06:11:35;;;;;;;6.82;3.03;;;18.40;99.90;;;;;;5096842;28;20055;-54
2022/07/09 06:14:01;;;;;;;5.07;2.58;;;18.40;99.90;;;;;;5096558;28;20067;-54
2022/07/09 06:16:27;;;;;;;6.95;2.72;;;18.50;99.90;;;;;;5096480;28;20119;-55
2022/07/09 06:18:53;;;;;;;3.88;2.47;;;18.50;99.90;;;;;;5096149;28;20078;-54
2022/07/09 06:21:19;;;;;;;3.50;2.22;;;18.40;99.90;;;;;;5096298;28;20091;-55
2022/07/09 06:23:45;;;;;;;5.68;2.67;;;18.40;99.90;;;;;;5096390;28;20179;-54
2022/07/09 06:26:11;;;;;;;5.32;2.33;;;18.50;99.90;;;;;;5096261;28;20029;-54
2022/07/09 06:28:38;;;;;;;7.20;2.60;;;18.60;99.90;;;;;;5096131;28;20039;-54
2022/07/09 06:31:04;;;;;;;6.40;2.30;;;18.70;99.90;;;;;;5096204;28;20031;-54
2022/07/09 06:33:30;;;;;;;5.60;2.72;;;18.70;99.90;;;;;;5096251;28;20024;-54
2022/07/09 06:35:56;;;;;;;8.55;2.50;;;18.70;99.90;;;;;;5095921;28;20024;-54
2022/07/09 06:38:22;;;;;;;10.93;2.58;;;18.70;99.90;;;;;;5095923;28;20065;-54
2022/07/09 06:40:48;;;;;;;9.40;4.72;;;18.70;99.90;;;;;;5096010;28;20077;-54
2022/07/09 06:43:14;;;;;;;9.07;2.65;;;18.60;99.90;;;;;;5095932;28;20091;-54
2022/07/09 06:45:45;;;;;;;4.95;2.40;;;18.60;99.90;;;;;;5077789;28;20390;-54
2022/07/09 06:48:11;;;;;;;7.38;2.80;;;18.50;99.90;;;;;;5095987;28;20028;-54
2022/07/09 06:50:37;;;;;;;5.88;2.58;;;18.50;99.90;;;;;;5077594;28;20481;-54
2022/07/09 06:53:04;;;;;;;6.57;2.58;;;18.40;99.90;;;;;;5095834;28;20028;-54
2022/07/09 06:55:30;;;;;;;8.32;2.55;;;18.40;99.90;;;;;;5095831;28;20063;-54
2022/07/09 06:57:57;;;;;;;5.82;2.55;;;18.40;99.90;;;;;;5095573;28;20039;-54
2022/07/09 07:00:23;;;;;;;7.82;2.67;;;18.20;99.90;;;;;;5095314;28;20544;-54
2022/07/09 07:02:50;;;;;;;6.55;2.13;;;18.20;99.90;;;;;;5094400;28;20054;-54
2022/07/09 07:05:16;;;;;;;5.97;2.50;;;18.20;99.90;;;;;;5095415;28;20020;-54
2022/07/09 07:07:42;;;;;;;7.20;2.10;;;18.30;99.90;;;;;;5095463;28;20535;-54
2022/07/09 07:10:08;;;;;;;6.72;2.33;;;18.20;99.90;;;;;;5095527;28;20386;-54
2022/07/09 07:12:34;;;;;;;6.32;2.95;;;18.10;99.90;;;;;;5095359;28;20019;-54
2022/07/09 07:15:00;;;;;;;5.93;2.67;;;18.20;99.90;;;;;;5095422;28;20043;-54
2022/07/09 07:17:26;;;;;;;6.13;2.22;;;18.30;99.90;;;;;;5095143;28;20036;-54
2022/07/09 07:19:52;;;;;;;6.88;2.50;;;18.30;99.90;;;;;;5095258;28;20459;-54
2022/07/09 07:22:18;;;;;;;8.88;2.80;;;18.30;99.90;;;;;;5095376;28;20476;-54
2022/07/09 07:24:44;;;;;;;5.18;2.05;;;18.30;99.90;;;;;;5095283;28;20053;-54
2022/07/09 07:27:10;;;;;;;6.78;2.10;;;18.30;99.90;;;;;;5095085;28;20028;-54
2022/07/09 07:29:35;;;;;;;5.82;2.22;;;18.40;99.90;;;;;;5076979;28;20085;-54
2022/07/09 07:32:02;;;;;;;5.82;2.58;;;18.40;99.90;;;;;;5095045;28;20252;-54
2022/07/09 07:34:27;;;;;;;6.25;2.15;;;18.50;99.90;;;;;;5094958;28;20089;-54
2022/07/09 07:36:54;;;;;;;3.85;2.60;;;18.50;99.90;;;;;;5094915;28;20020;-54
2022/07/09 07:39:21;;;;;;;5.55;2.72;;;18.50;99.90;;;;;;5094721;28;20088;-54
2022/07/09 07:41:48;;;;;;;7.20;2.35;;;18.60;99.90;;;;;;5094821;28;20081;-54
2022/07/09 07:44:14;;;;;;;8.23;2.60;;;18.70;99.90;;;;;;5094729;28;20020;-54
2022/07/09 07:46:39;;;;;;;6.40;3.33;;;19.00;99.90;;;;;;5076708;28;20488;-54
2022/07/09 07:49:05;;;;;;;8.43;2.38;;;19.10;99.30;;;;;;5094707;28;20539;-54
2022/07/09 07:51:31;;;;;;;6.13;2.15;;;19.20;98.80;;;;;;5094437;28;20077;-54
2022/07/09 07:53:57;;;;;;;6.60;2.70;;;19.30;98.40;;;;;;5094694;28;20031;-54
2022/07/09 07:56:23;;;;;;;5.72;3.05;;;19.20;98.00;;;;;;5094565;28;20054;-54
2022/07/09 07:58:49;;;;;;;9.75;3.15;;;19.40;96.80;;;;;;5094593;28;20032;-54
2022/07/09 08:01:15;;;;;;;8.13;3.00;;;19.50;97.20;;;;;;5094469;28;20024;-54
2022/07/09 08:03:41;;;;;;;6.82;3.00;;;19.60;96.90;;;;;;5094666;28;20032;-54
2022/07/09 08:06:07;;;;;;;7.85;3.20;;;19.60;96.30;;;;;;5094883;28;20057;-54
2022/07/09 08:08:34;;;;;;;8.15;2.38;;;19.80;95.70;;;;;;5095270;28;20032;-54
2022/07/09 08:11:00;;;;;;;5.50;2.78;;;19.80;95.70;;;;;;5094891;28;20047;-54
2022/07/09 08:13:28;;;;;;;5.63;2.40;;;19.90;94.50;;;;;;5094630;28;20016;-54
2022/07/09 08:15:54;;;;;;;5.32;3.03;;;19.90;95.00;;;;;;5094388;28;20478;-54
2022/07/09 08:18:20;;;;;;;6.95;2.60;;;20.20;97.10;;;;;;5094192;28;20040;-55
2022/07/09 08:20:49;;;;;;;3.30;2.40;;;20.60;94.20;;;;;;5094592;28;20031;-55
2022/07/09 08:23:15;;;;;;;6.35;3.05;;;20.90;94.70;;;;;;5094677;28;20056;-54
2022/07/09 08:25:41;;;;;;;4.80;2.40;;;21.20;91.70;;;;;;5094506;28;20047;-55
2022/07/09 08:28:07;;;;;;;10.00;3.53;;;21.50;91.50;;;;;;5094463;28;20032;-55
2022/07/09 08:30:33;;;;;;;6.85;2.10;;;21.60;87.90;;;;;;5094444;28;20121;-55
2022/07/09 08:32:59;;;;;;;4.30;2.10;;;21.70;88.60;;;;;;5094468;28;20020;-54
2022/07/09 08:35:25;;;;;;;3.05;2.00;;;21.80;83.70;;;;;;5094275;28;20497;-55
2022/07/09 08:37:52;;;;;;;5.57;2.42;;;21.90;82.00;;;;;;5094176;28;20024;-54
2022/07/09 08:40:19;;;;;;;5.75;2.40;;;21.70;80.00;;;;;;5094206;28;20073;-54
2022/07/09 08:42:45;;;;;;;5.20;2.30;;;21.60;81.70;;;;;;5094311;28;20027;-54
2022/07/09 08:45:16;;;;;;;7.65;2.35;;;21.60;82.80;;;;;;5094026;28;20032;-54
2022/07/09 08:47:42;;;;;;;5.13;2.20;;;21.70;81.70;;;;;;5094222;28;20437;-54
2022/07/09 08:50:10;;;;;;;4.53;2.08;;;21.80;83.30;;;;;;5094151;28;20523;-55
2022/07/09 08:52:38;;;;;;;5.55;2.67;;;21.70;82.00;;;;;;5094067;28;20466;-54
2022/07/09 08:55:06;;;;;;;3.80;2.35;;;21.70;81.70;;;;;;5094049;28;20056;-55
2022/07/09 08:57:31;;;;;;;5.00;2.22;;;21.60;81.70;;;;;;5094041;28;20478;-55
2022/07/09 08:59:57;;;;;;;7.57;2.55;;;21.70;79.90;;;;;;5094108;28;20036;-54
2022/07/09 09:02:23;;;;;;;6.43;2.17;;;21.70;81.20;;;;;;5094038;28;20103;-55
2022/07/09 09:04:49;;;;;;;6.13;2.22;;;21.50;78.40;;;;;;5096025;28;20031;-54
2022/07/09 09:07:19;;;;;;;4.28;2.15;;;21.20;82.30;;;;;;5097773;28;20374;-55
2022/07/09 09:09:45;;;;;;;8.93;2.72;;;21.30;82.10;;;;;;5097836;28;20546;-54
2022/07/09 09:12:13;;;;;;;6.57;2.40;;;21.20;83.00;;;;;;5097588;28;20035;-54
2022/07/09 09:14:39;;;;;;;4.25;2.17;;;21.10;82.80;;;;;;5098116;28;20111;-54
2022/07/09 09:17:11;;;;;;;5.45;2.90;;;21.10;84.20;;;;;;5097743;28;20489;-54
2022/07/09 09:19:40;;;;;;;3.78;1.83;;;21.10;83.00;;;;;;5097345;28;20405;-54
2022/07/09 09:22:07;;;;;;;4.90;2.40;;;21.10;83.10;;;;;;5097577;28;20028;-54
2022/07/09 09:24:34;;;;;;;9.88;2.53;;;21.20;85.00;;;;;;5097576;28;20024;-54
2022/07/09 09:27:03;;;;;;;5.07;1.98;;;21.20;85.40;;;;;;5097337;28;20097;-54
2022/07/09 09:29:29;;;;;;;5.18;2.42;;;21.30;84.70;;;;;;5097517;28;20034;-54
2022/07/09 09:31:56;;;;;;;4.90;2.63;;;21.10;83.80;;;;;;5097390;28;20539;-54
2022/07/09 09:34:22;;;;;;;6.63;2.88;;;21.10;84.00;;;;;;5097270;28;20030;-54
2022/07/09 09:36:54;;;;;;;7.20;2.90;;;21.10;83.20;;;;;;5097333;28;20039;-54
2022/07/09 09:39:22;;;;;;;5.22;2.40;;;21.10;86.60;;;;;;5096939;28;20062;-54
2022/07/09 09:41:56;;;;;;;5.70;2.33;;;21.00;88.20;;;;;;5079159;28;20069;-54
2022/07/09 09:44:24;;;;;;;5.03;2.28;;;20.90;87.50;;;;;;5097216;28;20024;-54
2022/07/09 09:46:50;;;;;;;6.47;2.65;;;21.00;85.80;;;;;;5097136;28;20103;-54
2022/07/09 09:49:16;;;;;;;7.88;3.05;;;20.90;84.70;;;;;;5097130;28;20051;-54
2022/07/09 09:51:55;;;;;;;12.30;3.65;;;20.80;85.20;;;;;;5096896;28;20107;-54
2022/07/09 09:54:21;;;;;;;6.00;2.67;;;20.70;88.20;;;;;;5096882;28;20084;-54
2022/07/09 09:56:51;;;;;;;6.90;3.33;;;20.70;89.40;;;;;;5097029;28;20039;-54
2022/07/09 09:59:18;;;;;;;6.70;3.28;;;20.70;88.80;;;;;;5096792;28;20039;-54
2022/07/09 10:01:44;;;;;;;9.75;2.75;;;20.80;89.60;;;;;;5096721;28;20099;-54
2022/07/09 10:04:12;;;;;;;6.78;2.42;;;20.80;91.50;;;;;;5096746;28;20027;-54
2022/07/09 10:06:39;;;;;;;6.65;2.30;;;21.00;90.20;;;;;;5096522;28;20443;-54
2022/07/09 10:09:09;;;;;;;5.55;2.28;;;21.10;88.50;;;;;;5096569;28;20020;-54
2022/07/09 10:11:42;;;;;;;7.07;2.33;;;21.20;88.30;;;;;;5096701;28;20024;-54
2022/07/09 10:14:16;;;;;;;7.07;2.35;;;21.40;90.40;;;;;;5096513;28;20038;-54
2022/07/09 10:16:42;;;;;;;6.30;3.03;;;22.00;91.20;;;;;;5095756;28;20118;-55
2022/07/09 10:19:08;;;;;;;6.30;2.50;;;22.50;79.80;;;;;;5096140;28;20048;-55
2022/07/09 10:21:40;;;;;;;6.40;2.65;;;23.00;78.80;;;;;;5096383;28;20050;-55
2022/07/09 10:24:08;;;;;;;10.63;3.08;;;23.50;78.20;;;;;;5096312;28;20024;-55
2022/07/09 10:26:44;;;;;;;11.55;4.90;;;23.50;75.50;;;;;;5096324;28;20028;-55
2022/07/09 10:29:26;;;;;;;8.93;3.58;;;23.80;72.70;;;;;;5096091;28;20382;-54
2022/07/09 10:31:56;;;;;;;11.35;3.60;;;24.40;73.80;;;;;;5096064;28;20078;-55
2022/07/09 10:34:36;;;;;;;7.30;3.38;;;24.80;69.80;;;;;;5096083;28;20039;-55
2022/07/09 10:37:04;;;;;;;9.77;3.73;;;25.30;66.10;;;;;;5096104;28;20036;-55
2022/07/09 10:39:31;;;;;;;7.05;2.70;;;25.40;65.10;;;;;;5095900;28;20336;-55
2022/07/09 10:42:05;;;;;;;8.23;3.10;;;25.70;62.50;;;;;;5095898;28;20058;-55
2022/07/09 10:44:36;;;;;;;4.88;2.33;;;26.00;62.50;;;;;;5096036;28;20024;-55
2022/07/09 10:47:02;;;;;;;7.05;2.88;;;26.10;60.50;;;;;;5095952;28;20470;-55
2022/07/09 10:49:29;;;;;;;6.10;2.30;;;26.30;60.70;;;;;;5095934;28;20027;-55
2022/07/09 10:51:58;;;;;;;7.55;3.25;;;26.70;59.30;;;;;;5095634;28;20039;-55
2022/07/09 10:54:25;;;;;;;4.53;2.35;;;26.60;58.70;;;;;;5095552;28;20020;-55
2022/07/09 10:56:53;;;;;;;7.55;2.58;;;26.70;56.80;;;;;;5095751;28;20040;-55
2022/07/09 10:59:19;;;;;;;5.28;1.90;;;26.90;59.40;;;;;;5095510;28;20035;-55
2022/07/09 11:01:46;;;;;;;6.47;2.22;;;27.00;57.90;;;;;;5095629;28;20039;-55
2022/07/09 11:04:12;;;;;;;3.20;1.95;;;26.80;56.00;;;;;;5095463;28;20480;-55
2022/07/09 11:06:47;;;;;;;7.30;1.95;;;26.70;55.50;;;;;;5095416;28;20110;-55
2022/07/09 11:09:14;;;;;;;4.25;2.17;;;26.70;54.50;;;;;;5095730;28;20111;-55
2022/07/09 11:11:44;;;;;;;3.05;1.70;;;26.50;55.60;;;;;;5095277;28;20031;-55
2022/07/09 11:14:11;;;;;;;6.20;2.57;;;26.30;55.70;;;;;;5095320;28;20036;-54
2022/07/09 11:16:37;;;;;;;4.28;2.47;;;26.00;55.60;;;;;;5095486;28;20797;-54
2022/07/09 11:19:32;;;;;;;4.50;2.03;;;25.90;58.20;;;;;;5095048;28;20493;-54
2022/07/09 11:22:02;;;;;;;5.53;2.63;;;25.90;57.40;;;;;;5081917;28;20044;-54
2022/07/09 11:24:29;;;;;;;3.45;1.98;;;25.90;56.50;;;;;;5095159;28;20038;-54
2022/07/09 11:27:00;;;;;;;3.80;2.20;;;26.10;57.80;;;;;;5094633;28;20020;-55
2022/07/09 11:29:26;;;;;;;6.32;2.47;;;26.00;55.30;;;;;;5095054;28;20024;-55
2022/07/09 11:31:52;;;;;;;4.15;2.85;;;25.90;55.80;;;;;;5095066;28;20509;-54
2022/07/09 11:34:19;;;;;;;5.30;1.88;;;25.80;55.80;;;;;;5095104;28;20161;-54
2022/07/09 11:36:56;;;;;;;3.92;1.80;;;24.90;58.30;;;;;;5094773;28;20027;-54
2022/07/09 11:39:33;;;;;;;3.15;1.95;;;24.60;58.40;;;;;;5094799;28;20024;-54
2022/07/09 11:42:01;;;;;;;4.30;2.10;;;25.00;58.40;;;;;;5094879;28;20401;-54
2022/07/09 11:44:34;;;;;;;3.55;2.25;;;25.30;58.40;;;;;;5094734;28;20028;-55
2022/07/09 11:47:07;;;;;;;3.90;2.28;;;25.20;56.40;;;;;;5094953;28;20496;-54
2022/07/09 11:49:34;;;;;;;4.47;1.90;;;25.20;57.40;;;;;;5094813;28;20035;-54
2022/07/09 11:51:59;;;;;;;5.20;1.73;;;25.10;58.90;;;;;;5094820;28;20040;-54
2022/07/09 11:54:27;;;;;;;6.18;2.25;;;24.90;57.80;;;;;;5076318;28;20106;-54
2022/07/09 11:56:53;;;;;;;6.80;2.83;;;25.00;58.40;;;;;;5094738;28;20035;-54
2022/07/09 11:59:27;;;;;;;3.60;1.80;;;25.10;60.20;;;;;;5094788;28;20028;-54
2022/07/09 12:01:55;;;;;;;4.05;2.60;;;25.10;57.70;;;;;;5094958;28;20032;-55
2022/07/09 12:04:21;;;;;;;5.47;2.10;;;25.10;58.70;;;;;;5094555;28;20347;-55
2022/07/09 12:06:51;;;;;;;3.08;2.03;;;25.30;58.10;;;;;;5094546;28;20089;-55
2022/07/09 12:09:31;;;;;;;4.22;1.67;;;25.30;56.40;;;;;;5094530;28;20034;-55
2022/07/09 12:11:58;;;;;;;4.40;1.60;;;25.20;58.00;;;;;;5094560;28;20432;-54
2022/07/09 12:14:24;;;;;;;3.20;2.08;;;25.10;57.10;;;;;;5094665;28;20039;-54
2022/07/09 12:16:50;;;;;;;3.25;2.00;;;25.00;58.00;;;;;;5094430;28;20109;-54
2022/07/09 12:19:16;;;;;;;5.50;2.70;;;25.00;57.50;;;;;;5094267;28;20111;-55
2022/07/09 12:21:42;;;;;;;3.92;2.08;;;25.30;57.50;;;;;;5094298;28;20097;-55
2022/07/09 12:24:07;;;;;;;4.43;2.45;;;25.20;57.70;;;;;;5094396;28;20024;-55
2022/07/09 12:26:33;;;;;;;7.70;2.80;;;25.00;57.90;;;;;;5094578;28;20028;-54
2022/07/09 12:28:59;;;;;;;5.88;2.17;;;25.30;56.50;;;;;;5094619;28;20103;-55
2022/07/09 12:31:25;;;;;;;3.95;1.80;;;25.80;54.80;;;;;;5094321;28;20028;-55
2022/07/09 12:33:51;;;;;;;3.97;3.58;;;25.90;54.70;;;;;;5094524;28;20070;-54
2022/07/09 12:36:17;;;;;;;5.38;2.05;;;26.10;55.60;;;;;;5094189;28;20027;-55
2022/07/09 12:38:43;;;;;;;4.47;2.00;;;26.10;54.70;;;;;;5096059;28;20473;-54
2022/07/09 12:41:09;;;;;;;4.43;2.22;;;26.30;54.50;;;;;;5098423;28;20115;-54
2022/07/09 12:43:35;;;;;;;3.88;2.22;;;26.00;54.10;;;;;;5080346;28;20055;-54